Time,TemperatureF,DewpointF,PressureIn,WindDirection,WindDirectionDegrees,WindSpeedMPH,WindSpeedGustMPH,Humidity,HourlyPrecipIn,Conditions,Clouds,dailyrainin,SolarRadiationWatts/m^2,SoftwareType,DateUTC
2013-01-21 00:00:00,13.2,6.8,31.09,ENE,73,0.0,2.0,75,0.00,CLR,SKC,0.00,0.0,WeatherDisplay:10.37,2013-01-21 07:00:00,
2013-01-21 00:15:00,13.2,7.0,31.09,ENE,73,1.0,3.0,76,0.00,CLR,SKC,0.00,0.0,WeatherDisplay:10.37,2013-01-21 07:15:00,
2013-01-21 00:30:00,12.2,6.1,31.09,ENE,73,1.0,3.0,76,0.00,CLR,SKC,0.00,0.0,WeatherDisplay:10.37,2013-01-21 07:30:00,
2013-01-21 00:45:00,12.1,6.3,31.09,ENE,73,0.0,2.0,77,0.00,CLR,SKC,0.00,0.0,WeatherDisplay:10.37,2013-01-21 07:45:00,
2013-01-21 01:00:00,14.0,7.3,31.08,ENE,73,0.0,3.0,74,0.00,CLR,SKC,0.00,0.0,WeatherDisplay:10.37,2013-01-21 08:00:00,
2013-01-21 01:15:00,12.0,5.3,31.09,ENE,73,0.0,1.0,74,0.00,CLR,SKC,0.00,0.0,WeatherDisplay:10.37,2013-01-21 08:15:00,
2013-01-21 01:30:00,12.3,6.7,31.09,ENE,73,0.0,1.0,78,0.00,CLR,SKC,0.00,0.0,WeatherDisplay:10.37,2013-01-21 08:30:00,
2013-01-21 01:45:00,11.7,5.9,31.09,ENE,73,0.0,1.0,77,0.00,CLR,SKC,0.00,0.0,WeatherDisplay:10.37,2013-01-21 08:45:00,
2013-01-21 02:00:00,12.2,7.2,31.08,ENE,73,0.0,1.0,80,0.00,CLR,SKC,0.00,0.0,WeatherDisplay:10.37,2013-01-21 09:00:00,
2013-01-21 02:15:00,11.3,5.8,31.08,ENE,73,1.0,3.0,78,0.00,CLR,SKC,0.00,0.0,WeatherDisplay:10.37,2013-01-21 09:15:00,
2013-01-21 02:30:00,10.9,5.1,31.08,ENE,73,0.0,3.0,77,0.00,CLR,SKC,0.00,0.0,WeatherDisplay:10.37,2013-01-21 09:30:00,
2013-01-21 02:45:00,12.2,6.7,31.09,ENE,73,0.0,0.0,78,0.00,CLR,SKC,0.00,0.0,WeatherDisplay:10.37,2013-01-21 09:45:00,
2013-01-21 03:00:00,12.0,6.7,31.09,ENE,73,0.0,0.0,79,0.00,CLR,SKC,0.00,0.0,WeatherDisplay:10.37,2013-01-21 10:00:00,
2013-01-21 03:15:00,11.7,7.0,31.09,ENE,73,0.0,1.0,81,0.00,CLR,SKC,0.00,0.0,WeatherDisplay:10.37,2013-01-21 10:15:00,
2013-01-21 03:30:00,10.8,5.8,31.08,ENE,73,0.0,1.0,80,0.00,CLR,SKC,0.00,0.0,WeatherDisplay:10.37,2013-01-21 10:30:00,
2013-01-21 03:45:00,10.9,6.2,31.08,ENE,73,0.0,1.0,81,0.00,CLR,SKC,0.00,0.0,WeatherDisplay:10.37,2013-01-21 10:45:00,
2013-01-21 04:00:00,9.2,4.3,31.09,ENE,73,0.0,1.0,80,0.00,CLR,SKC,0.00,0.0,WeatherDisplay:10.37,2013-01-21 11:00:00,
2013-01-21 04:15:00,11.2,6.8,31.09,ENE,73,0.0,1.0,82,0.00,CLR,SKC,0.00,0.0,WeatherDisplay:10.37,2013-01-21 11:15:00,
2013-01-21 04:30:00,10.9,6.2,31.09,ENE,73,0.0,2.0,81,0.00,CLR,SKC,0.00,0.0,WeatherDisplay:10.37,2013-01-21 11:30:00,
2013-01-21 04:45:00,9.8,5.2,31.09,ENE,73,0.0,1.0,81,0.00,CLR,SKC,0.00,0.0,WeatherDisplay:10.37,2013-01-21 11:45:00,
2013-01-21 05:00:00,10.5,6.1,31.09,ENE,73,0.0,1.0,82,0.00,CLR,SKC,0.00,0.0,WeatherDisplay:10.37,2013-01-21 12:00:00,
2013-01-21 05:15:00,9.8,4.9,31.09,ENE,73,0.0,2.0,80,0.00,CLR,SKC,0.00,0.0,WeatherDisplay:10.37,2013-01-21 12:15:00,
2013-01-21 05:30:00,10.0,4.8,31.09,ENE,73,0.0,1.0,79,0.00,CLR,SKC,0.00,0.0,WeatherDisplay:10.37,2013-01-21 12:30:00,
2013-01-21 05:45:00,10.4,5.2,31.10,ENE,73,0.0,1.0,79,0.00,CLR,SKC,0.00,0.0,WeatherDisplay:10.37,2013-01-21 12:45:00,
2013-01-21 06:00:00,10.2,5.3,31.10,ENE,73,0.0,0.0,80,0.00,CLR,SKC,0.00,0.0,WeatherDisplay:10.37,2013-01-21 13:00:00,
2013-01-21 06:15:00,10.7,6.0,31.09,ENE,73,0.0,1.0,81,0.00,CLR,SKC,0.00,0.0,WeatherDisplay:10.37,2013-01-21 13:15:00,
2013-01-21 06:30:00,9.2,4.6,31.09,ENE,73,0.0,1.0,81,0.00,CLR,SKC,0.00,0.0,WeatherDisplay:10.37,2013-01-21 13:30:00,
2013-01-21 06:45:00,9.9,5.5,31.10,ENE,73,0.0,0.0,82,0.00,CLR,SKC,0.00,0.0,WeatherDisplay:10.37,2013-01-21 13:45:00,
2013-01-21 07:00:00,9.3,4.7,31.09,ENE,73,0.0,1.0,81,0.00,CLR,SKC,0.00,0.0,WeatherDisplay:10.37,2013-01-21 14:00:00,
2013-01-21 07:15:00,9.2,4.8,31.09,ENE,73,0.0,2.0,82,0.00,OVC,SKC,0.00,0.0,WeatherDisplay:10.37,2013-01-21 14:15:00,
2013-01-21 07:30:00,8.6,3.7,31.09,ENE,73,1.0,2.0,80,0.00,OVC,SKC,0.00,0.0,WeatherDisplay:10.37,2013-01-21 14:30:00,
2013-01-21 07:45:00,9.1,4.2,31.10,ENE,73,0.0,2.0,80,0.00,OVC,SKC,0.00,5.0,WeatherDisplay:10.37,2013-01-21 14:45:00,
2013-01-21 08:00:00,9.7,4.8,31.09,ENE,73,0.0,1.0,80,0.00,BKN,SKC,0.00,11.0,WeatherDisplay:10.37,2013-01-21 15:00:00,
2013-01-21 08:15:00,10.0,5.3,31.10,ENE,73,0.0,1.0,81,0.00,BKN,SKC,0.00,16.0,WeatherDisplay:10.37,2013-01-21 15:15:00,
2013-01-21 08:30:00,10.7,6.1,31.10,ENE,73,0.0,1.0,81,0.00,CLR,SKC,0.00,84.0,WeatherDisplay:10.37,2013-01-21 15:30:00,
2013-01-21 08:45:00,13.4,8.6,31.11,ENE,73,0.0,1.0,81,0.00,CLR,SKC,0.00,134.0,WeatherDisplay:10.37,2013-01-21 15:45:00,
2013-01-21 09:00:00,16.2,9.7,31.12,ENE,73,0.0,0.0,75,0.00,CLR,SKC,0.00,185.0,WeatherDisplay:10.37,2013-01-21 16:00:00,
2013-01-21 09:15:00,17.0,10.5,31.12,ENE,73,1.0,3.0,75,0.00,CLR,SKC,0.00,243.0,WeatherDisplay:10.37,2013-01-21 16:15:00,
2013-01-21 09:30:00,18.8,9.3,31.13,ENE,73,1.0,2.0,66,0.00,CLR,SKC,0.00,272.0,WeatherDisplay:10.37,2013-01-21 16:30:00,
2013-01-21 09:45:00,17.4,10.9,31.14,North,360,0.0,3.0,75,0.00,CLR,SKC,0.00,315.0,WeatherDisplay:10.37,2013-01-21 16:45:00,
2013-01-21 10:00:00,17.0,10.1,31.14,North,360,0.0,1.0,74,0.00,CLR,SKC,0.00,350.0,WeatherDisplay:10.37,2013-01-21 17:00:00,
2013-01-21 10:15:00,18.3,9.9,31.14,North,360,0.0,1.0,69,0.00,CLR,SKC,0.00,381.0,WeatherDisplay:10.37,2013-01-21 17:15:00,
2013-01-21 10:30:00,18.2,10.7,31.14,North,360,0.0,1.0,72,0.00,CLR,SKC,0.00,417.0,WeatherDisplay:10.37,2013-01-21 17:30:00,
2013-01-21 10:45:00,24.7,12.0,31.14,North,360,0.0,1.0,58,0.00,CLR,SKC,0.00,454.0,WeatherDisplay:10.37,2013-01-21 17:45:00,
2013-01-21 11:00:00,27.4,15.0,31.14,North,360,0.0,2.0,59,0.00,CLR,SKC,0.00,480.0,WeatherDisplay:10.37,2013-01-21 18:00:00,
2013-01-21 11:15:00,26.9,14.1,31.13,North,360,0.0,3.0,58,0.00,CLR,SKC,0.00,503.0,WeatherDisplay:10.37,2013-01-21 18:15:00,
2013-01-21 11:30:00,24.3,13.2,31.13,North,360,1.0,3.0,62,0.00,CLR,SKC,0.00,517.0,WeatherDisplay:10.37,2013-01-21 18:30:00,
2013-01-21 11:45:00,24.2,14.1,31.12,North,360,0.0,3.0,65,0.00,CLR,SKC,0.00,533.0,WeatherDisplay:10.37,2013-01-21 18:45:00,
2013-01-21 12:00:00,22.6,13.3,31.11,North,360,0.0,2.0,67,0.00,CLR,SKC,0.00,541.0,WeatherDisplay:10.37,2013-01-21 19:00:00,
2013-01-21 12:15:00,20.0,11.5,31.10,North,360,1.0,2.0,69,0.00,CLR,SKC,0.00,548.0,WeatherDisplay:10.37,2013-01-21 19:15:00,
2013-01-21 12:30:00,19.3,11.5,31.10,North,360,0.0,2.0,71,0.00,CLR,SKC,0.00,552.0,WeatherDisplay:10.37,2013-01-21 19:30:00,
2013-01-21 12:45:00,25.6,14.0,31.09,North,360,0.0,0.0,61,0.00,CLR,SKC,0.00,554.0,WeatherDisplay:10.37,2013-01-21 19:45:00,
2013-01-21 13:00:00,25.2,13.3,31.08,North,360,1.0,3.0,60,0.00,CLR,SKC,0.00,550.0,WeatherDisplay:10.37,2013-01-21 20:00:00,
2013-01-21 13:15:00,24.1,13.0,31.08,NNW,340,1.0,4.0,62,0.00,CLR,SKC,0.00,540.0,WeatherDisplay:10.37,2013-01-21 20:15:00,
2013-01-21 13:30:00,25.3,13.7,31.07,NW,325,2.0,4.0,61,0.00,CLR,SKC,0.00,529.0,WeatherDisplay:10.37,2013-01-21 20:30:00,
2013-01-21 13:45:00,26.8,15.5,31.06,NW,320,1.0,3.0,62,0.00,CLR,SKC,0.00,513.0,WeatherDisplay:10.37,2013-01-21 20:45:00,
2013-01-21 14:00:00,26.4,15.1,31.05,NW,320,0.0,2.0,62,0.00,CLR,SKC,0.00,494.0,WeatherDisplay:10.37,2013-01-21 21:00:00,
2013-01-21 14:15:00,27.1,16.2,31.05,NW,320,0.0,3.0,63,0.00,CLR,SKC,0.00,469.0,WeatherDisplay:10.37,2013-01-21 21:15:00,
2013-01-21 14:30:00,27.7,16.3,31.05,NW,320,1.0,3.0,62,0.00,CLR,SKC,0.00,443.0,WeatherDisplay:10.37,2013-01-21 21:30:00,
2013-01-21 14:45:00,28.2,16.8,31.04,NW,320,0.0,3.0,62,0.00,CLR,SKC,0.00,411.0,WeatherDisplay:10.37,2013-01-21 21:45:00,
2013-01-21 15:00:00,29.6,17.1,31.05,NW,320,2.0,3.0,59,0.00,CLR,SKC,0.00,380.0,WeatherDisplay:10.37,2013-01-21 22:00:00,
2013-01-21 15:15:00,28.2,17.2,31.05,NW,320,1.0,3.0,63,0.00,CLR,SKC,0.00,343.0,WeatherDisplay:10.37,2013-01-21 22:15:00,
2013-01-21 15:30:00,28.5,15.6,31.05,NW,320,0.0,2.0,58,0.00,CLR,SKC,0.00,308.0,WeatherDisplay:10.37,2013-01-21 22:30:00,
2013-01-21 15:45:00,27.6,14.8,31.05,NW,320,0.0,2.0,58,0.00,CLR,SKC,0.00,251.0,WeatherDisplay:10.37,2013-01-21 22:45:00,
2013-01-21 16:00:00,29.2,14.6,31.05,NW,320,0.0,1.0,54,0.00,CLR,SKC,0.00,197.0,WeatherDisplay:10.37,2013-01-21 23:00:00,
2013-01-21 16:15:00,30.7,15.1,31.05,NW,320,0.0,1.0,52,0.00,CLR,SKC,0.00,142.0,WeatherDisplay:10.37,2013-01-21 23:15:00,
2013-01-21 16:30:00,30.5,15.0,31.05,NW,320,0.0,1.0,52,0.00,CLR,SKC,0.00,95.0,WeatherDisplay:10.37,2013-01-21 23:30:00,
2013-01-21 16:45:00,29.8,16.0,31.04,NW,320,1.0,2.0,56,0.00,SCT,SKC,0.00,54.0,WeatherDisplay:10.37,2013-01-21 23:45:00,
2013-01-21 17:00:00,31.2,14.7,31.03,NW,320,0.0,2.0,50,0.00,BKN,SKC,0.00,18.0,WeatherDisplay:10.37,2013-01-22 00:00:00,
2013-01-21 17:15:00,30.1,14.6,31.02,NW,320,0.0,1.0,52,0.00,SCT,SKC,0.00,12.0,WeatherDisplay:10.37,2013-01-22 00:15:00,
2013-01-21 17:30:00,26.2,14.2,31.02,NW,320,0.0,2.0,60,0.00,OVC,SKC,0.00,7.0,WeatherDisplay:10.37,2013-01-22 00:30:00,
2013-01-21 17:45:00,25.5,14.3,31.02,NW,320,0.0,1.0,62,0.00,OVC,SKC,0.00,0.0,WeatherDisplay:10.37,2013-01-22 00:45:00,
2013-01-21 18:00:00,25.0,13.8,31.01,NW,320,1.0,2.0,62,0.00,CLR,SKC,0.00,0.0,WeatherDisplay:10.37,2013-01-22 01:00:00,
2013-01-21 18:15:00,22.5,11.8,31.02,NW,320,0.0,2.0,63,0.00,CLR,SKC,0.00,0.0,WeatherDisplay:10.37,2013-01-22 01:15:00,
2013-01-21 18:30:00,22.1,12.2,31.01,NW,320,0.0,2.0,65,0.00,CLR,SKC,0.00,0.0,WeatherDisplay:10.37,2013-01-22 01:30:00,
2013-01-21 18:45:00,21.1,11.5,31.02,NW,320,0.0,1.0,66,0.00,CLR,SKC,0.00,0.0,WeatherDisplay:10.37,2013-01-22 01:45:00,
2013-01-21 19:00:00,20.0,10.8,31.03,NW,320,0.0,0.0,67,0.00,CLR,SKC,0.00,0.0,WeatherDisplay:10.37,2013-01-22 02:00:00,
2013-01-21 19:15:00,18.9,11.1,31.03,NW,320,0.0,1.0,71,0.00,CLR,SKC,0.00,0.0,WeatherDisplay:10.37,2013-01-22 02:15:00,
2013-01-21 19:30:00,18.9,11.0,31.03,NW,320,0.0,1.0,71,0.00,CLR,SKC,0.00,0.0,WeatherDisplay:10.37,2013-01-22 02:30:00,
2013-01-21 19:45:00,18.5,10.6,31.03,NW,320,0.0,1.0,71,0.00,CLR,SKC,0.00,0.0,WeatherDisplay:10.37,2013-01-22 02:45:00,
2013-01-21 20:00:00,18.8,10.9,31.03,NW,320,0.0,2.0,71,0.00,CLR,SKC,0.00,0.0,WeatherDisplay:10.37,2013-01-22 03:00:00,
2013-01-21 20:15:00,17.3,9.5,31.03,NW,320,0.0,1.0,71,0.00,CLR,SKC,0.00,0.0,WeatherDisplay:10.37,2013-01-22 03:15:00,
2013-01-21 20:30:00,19.9,11.4,31.03,NW,320,1.0,3.0,69,0.00,CLR,SKC,0.00,0.0,WeatherDisplay:10.37,2013-01-22 03:30:00,
2013-01-21 20:45:00,19.3,10.5,31.03,NW,320,0.0,2.0,68,0.00,CLR,SKC,0.00,0.0,WeatherDisplay:10.37,2013-01-22 03:45:00,
2013-01-21 21:00:00,18.6,9.5,31.03,ENE,71,1.0,3.0,67,0.00,CLR,SKC,0.00,0.0,WeatherDisplay:10.37,2013-01-22 04:00:00,
2013-01-21 21:15:00,17.5,9.1,31.04,ENE,71,0.0,2.0,69,0.00,CLR,SKC,0.00,0.0,WeatherDisplay:10.37,2013-01-22 04:15:00,
2013-01-21 21:30:00,17.0,8.9,31.04,ENE,71,0.0,1.0,70,0.00,CLR,SKC,0.00,0.0,WeatherDisplay:10.37,2013-01-22 04:30:00,
2013-01-21 21:45:00,16.5,8.8,31.04,ENE,71,0.0,2.0,71,0.00,CLR,SKC,0.00,0.0,WeatherDisplay:10.37,2013-01-22 04:45:00,
2013-01-21 22:00:00,17.0,9.5,31.05,ENE,71,0.0,1.0,72,0.00,CLR,SKC,0.00,0.0,WeatherDisplay:10.37,2013-01-22 05:00:00,
2013-01-21 22:15:00,16.3,8.8,31.04,ENE,71,1.0,2.0,72,0.00,CLR,SKC,0.00,0.0,WeatherDisplay:10.37,2013-01-22 05:15:00,
2013-01-21 22:30:00,14.9,8.1,31.05,ENE,71,0.0,2.0,74,0.00,CLR,SKC,0.00,0.0,WeatherDisplay:10.37,2013-01-22 05:30:00,
2013-01-21 22:45:00,15.6,8.2,31.06,ENE,71,0.0,1.0,72,0.00,CLR,SKC,0.00,0.0,WeatherDisplay:10.37,2013-01-22 05:45:00,
2013-01-21 23:00:00,15.5,7.8,31.06,ENE,71,1.0,2.0,71,0.00,CLR,SKC,0.00,0.0,WeatherDisplay:10.37,2013-01-22 06:00:00,
2013-01-21 23:15:00,15.8,7.8,31.06,ENE,71,1.0,2.0,70,0.00,CLR,SKC,0.00,0.0,WeatherDisplay:10.37,2013-01-22 06:15:00,
2013-01-21 23:30:00,15.6,7.9,31.06,ENE,71,0.0,2.0,71,0.00,CLR,SKC,0.00,0.0,WeatherDisplay:10.37,2013-01-22 06:30:00,
2013-01-21 23:45:00,15.8,8.0,31.06,ENE,71,0.0,1.0,71,0.00,CLR,SKC,0.00,0.0,WeatherDisplay:10.37,2013-01-22 06:45:00,